Decoded Metar for USCC (CHELYABINSK in RUSSIA) (IATA:CEK) | Meteo·Mobile Aviation Weather
aviador You're here:

USCC Decoded Metar

CHELYABINSK in RUSSIA
Report Time2018-12-11 10:30:00
UTC Time2018-12-11 10:52:45
Flight Rules mvfr MVFR
Wind240° at 2 kt
W.Decomp.*RWY 27: 1.5 kt HW 1.4 kt LCW
W.Rank240° ranks 16
Current wind is below 240° avg. (9.1)
Visibility5000 m
Phenomena:Mist
Clouds:N/A
Expected CloudBase > 400 ft AGL from Temp-Dew spread
CeilingNone
Temp-8°C (ISA -21)
Dew Point-9°C (93% RH)
AAT-11.7°C
QNH1026 hPa
Density Alt-2,300 ft
Elevation768 ft
Report Wrong Elevation
Raw Report
USCC 111030Z 24001MPS 5000 BR NSC M08/M09 Q1026 R27/350050 NOSIG
RMK QFE750=

Extra information for USCC:More info

Metar Taf Metar & Taf Last 4 Metars F.Rules Stats Wind Profile Meteogram Temp Stats Airport Information Weather charts Add Link Nearby VenuesMetar ALERT Operation Metar Decoded Social comments